sensor_id;sensor_type;location;lat;lon;timestamp;pressure;altitude;pressure_sealevel;temperature;humidity
62544;BME280;48597;49.030;1.822;2022-09-27T00:01:11;99681.56;;;19.45;51.66
62544;BME280;48597;49.030;1.822;2022-09-27T00:03:37;99686.91;;;19.45;51.59
62544;BME280;48597;49.030;1.822;2022-09-27T00:06:12;99685.25;;;19.44;51.71
62544;BME280;48597;49.030;1.822;2022-09-27T00:08:38;99683.59;;;19.43;51.53
62544;BME280;48597;49.030;1.822;2022-09-27T00:11:14;99684.41;;;19.43;51.70
62544;BME280;48597;49.030;1.822;2022-09-27T00:13:41;99689.75;;;19.43;51.77
62544;BME280;48597;49.030;1.822;2022-09-27T00:16:08;99686.06;;;19.44;51.72
62544;BME280;48597;49.030;1.822;2022-09-27T00:18:34;99695.91;;;19.44;51.67
62544;BME280;48597;49.030;1.822;2022-09-27T00:21:04;99695.91;;;19.44;51.67
62544;BME280;48597;49.030;1.822;2022-09-27T00:23:31;99695.91;;;19.44;51.80
62544;BME280;48597;49.030;1.822;2022-09-27T00:25:57;99696.75;;;19.44;51.74
62544;BME280;48597;49.030;1.822;2022-09-27T00:28:24;99702.06;;;19.44;51.67
62544;BME280;48597;49.030;1.822;2022-09-27T00:30:50;99716.25;;;19.45;51.65
62544;BME280;48597;49.030;1.822;2022-09-27T00:33:15;99711.94;;;19.44;51.64
62544;BME280;48597;49.030;1.822;2022-09-27T00:35:41;99714.78;;;19.42;51.59
62544;BME280;48597;49.030;1.822;2022-09-27T00:38:06;99718.28;;;19.43;51.57
62544;BME280;48597;49.030;1.822;2022-09-27T00:40:32;99720.94;;;19.43;51.78
62544;BME280;48597;49.030;1.822;2022-09-27T00:42:57;99713.94;;;19.42;51.55
62544;BME280;48597;49.030;1.822;2022-09-27T00:45:23;99717.44;;;19.42;51.66
62544;BME280;48597;49.030;1.822;2022-09-27T00:47:58;99721.97;;;19.42;51.73
62544;BME280;48597;49.030;1.822;2022-09-27T00:50:29;99727.28;;;19.42;51.70
62544;BME280;48597;49.030;1.822;2022-09-27T00:53:12;99722.94;;;19.41;51.68
62544;BME280;48597;49.030;1.822;2022-09-27T00:55:52;99738.13;;;19.40;51.66
62544;BME280;48597;49.030;1.822;2022-09-27T00:58:21;99734.44;;;19.41;51.75
62544;BME280;48597;49.030;1.822;2022-09-27T01:00:53;99737.28;;;19.40;51.79
62544;BME280;48597;49.030;1.822;2022-09-27T01:03:54;99737.09;;;19.41;51.71
62544;BME280;48597;49.030;1.822;2022-09-27T01:06:21;99745.09;;;19.41;51.64
62544;BME280;48597;49.030;1.822;2022-09-27T01:08:47;99747.13;;;19.39;51.69
62544;BME280;48597;49.030;1.822;2022-09-27T01:11:34;99744.28;;;19.41;51.67
62544;BME280;48597;49.030;1.822;2022-09-27T01:14:32;99729.28;;;19.40;51.74
62544;BME280;48597;49.030;1.822;2022-09-27T01:31:00;99743.63;;;19.38;51.55
62544;BME280;48597;49.030;1.822;2022-09-27T01:36:57;99731.31;;;19.37;51.67
62544;BME280;48597;49.030;1.822;2022-09-27T01:42:09;99736.66;;;19.37;51.64
62544;BME280;48597;49.030;1.822;2022-09-27T01:44:43;99734.97;;;19.36;51.59
62544;BME280;48597;49.030;1.822;2022-09-27T01:47:18;99727.78;;;19.37;51.67
62544;BME280;48597;49.030;1.822;2022-09-27T01:49:52;99731.47;;;19.36;51.63
62544;BME280;48597;49.030;1.822;2022-09-27T01:52:23;99728.81;;;19.36;51.62
62544;BME280;48597;49.030;1.822;2022-09-27T01:54:54;99721.63;;;19.36;51.72
62544;BME280;48597;49.030;1.822;2022-09-27T01:57:24;99716.28;;;19.36;51.53
62544;BME280;48597;49.030;1.822;2022-09-27T01:59:58;99716.28;;;19.36;51.66
62544;BME280;48597;49.030;1.822;2022-09-27T02:02:27;99722.44;;;19.37;51.70
62544;BME280;48597;49.030;1.822;2022-09-27T02:04:57;99722.44;;;19.37;51.57
62544;BME280;48597;49.030;1.822;2022-09-27T02:07:31;99737.63;;;19.36;51.66
62544;BME280;48597;49.030;1.822;2022-09-27T02:10:02;99736.81;;;19.36;51.66
62544;BME280;48597;49.030;1.822;2022-09-27T02:12:36;99741.31;;;19.35;51.58
62544;BME280;48597;49.030;1.822;2022-09-27T02:15:08;99743.97;;;19.35;51.33
62544;BME280;48597;49.030;1.822;2022-09-27T02:17:50;99742.13;;;19.36;51.64
62544;BME280;48597;49.030;1.822;2022-09-27T02:20:37;99742.13;;;19.36;51.57
62544;BME280;48597;49.030;1.822;2022-09-27T02:25:56;99735.16;;;19.35;51.54
62544;BME280;48597;49.030;1.822;2022-09-27T02:28:47;99726.31;;;19.34;51.57
62544;BME280;48597;49.030;1.822;2022-09-27T02:31:10;99731.66;;;19.34;51.59
62544;BME280;48597;49.030;1.822;2022-09-27T02:33:49;99733.50;;;19.34;51.64
62544;BME280;48597;49.030;1.822;2022-09-27T02:36:16;99730.81;;;19.34;51.60
62544;BME280;48597;49.030;1.822;2022-09-27T02:38:42;99722.81;;;19.34;51.57
62544;BME280;48597;49.030;1.822;2022-09-27T02:41:16;99717.50;;;19.34;51.69
62544;BME280;48597;49.030;1.822;2022-09-27T02:43:44;99721.13;;;19.33;51.53
62544;BME280;48597;49.030;1.822;2022-09-27T02:48:56;99727.28;;;19.33;51.55
62544;BME280;48597;49.030;1.822;2022-09-27T02:57:12;99702.66;;;19.31;51.50
62544;BME280;48597;49.030;1.822;2022-09-27T03:00:02;99706.31;;;19.30;51.56
62544;BME280;48597;49.030;1.822;2022-09-27T03:05:11;99715.31;;;19.29;51.53
62544;BME280;48597;49.030;1.822;2022-09-27T03:07:38;99713.31;;;19.31;51.58
62544;BME280;48597;49.030;1.822;2022-09-27T03:10:05;99718.66;;;19.31;51.55
62544;BME280;48597;49.030;1.822;2022-09-27T03:12:31;99711.81;;;19.29;51.65
62544;BME280;48597;49.030;1.822;2022-09-27T03:14:58;99723.31;;;19.29;51.62
62544;BME280;48597;49.030;1.822;2022-09-27T03:17:25;99714.47;;;19.29;51.57
62544;BME280;48597;49.030;1.822;2022-09-27T03:19:50;99706.66;;;19.27;51.77
62544;BME280;48597;49.030;1.822;2022-09-27T03:22:16;99710.16;;;19.28;51.54
62544;BME280;48597;49.030;1.822;2022-09-27T03:24:41;99709.34;;;19.27;51.58
62544;BME280;48597;49.030;1.822;2022-09-27T03:27:07;99713.84;;;19.27;51.62
62544;BME280;48597;49.030;1.822;2022-09-27T03:29:32;99700.50;;;19.27;51.55
62544;BME280;48597;49.030;1.822;2022-09-27T03:31:58;99700.50;;;19.27;51.59
62544;BME280;48597;49.030;1.822;2022-09-27T03:34:23;99703.19;;;19.27;51.70
62544;BME280;48597;49.030;1.822;2022-09-27T03:36:49;99700.50;;;19.27;51.55
62544;BME280;48597;49.030;1.822;2022-09-27T03:39:14;99705.00;;;19.26;51.60
62544;BME280;48597;49.030;1.822;2022-09-27T03:41:39;99709.53;;;19.26;51.67
62544;BME280;48597;49.030;1.822;2022-09-27T03:44:05;99721.84;;;19.27;51.56
62544;BME280;48597;49.030;1.822;2022-09-27T03:46:31;99725.53;;;19.26;51.58
62544;BME280;48597;49.030;1.822;2022-09-27T03:48:56;99723.84;;;19.25;51.43
62544;BME280;48597;49.030;1.822;2022-09-27T03:51:21;99721.03;;;19.26;51.58
62544;BME280;48597;49.030;1.822;2022-09-27T03:53:47;99719.34;;;19.25;51.60
62544;BME280;48597;49.030;1.822;2022-09-27T03:56:13;99716.66;;;19.25;51.63
62544;BME280;48597;49.030;1.822;2022-09-27T03:58:38;99714.00;;;19.25;51.60
62544;BME280;48597;49.030;1.822;2022-09-27T04:01:03;99705.00;;;19.26;51.54
62544;BME280;48597;49.030;1.822;2022-09-27T04:03:29;99704.19;;;19.26;51.64
62544;BME280;48597;49.030;1.822;2022-09-27T04:05:54;99702.50;;;19.25;51.53
62544;BME280;48597;49.030;1.822;2022-09-27T04:08:20;99697.16;;;19.25;51.59
62544;BME280;48597;49.030;1.822;2022-09-27T04:10:48;99694.69;;;19.23;51.57
62544;BME280;48597;49.030;1.822;2022-09-27T04:13:14;99703.31;;;19.25;51.59
62544;BME280;48597;49.030;1.822;2022-09-27T04:15:39;99700.84;;;19.24;51.44
62544;BME280;48597;49.030;1.822;2022-09-27T04:18:05;99701.69;;;19.24;51.69
62544;BME280;48597;49.030;1.822;2022-09-27T04:20:30;99694.69;;;19.23;51.45
62544;BME280;48597;49.030;1.822;2022-09-27T04:22:56;99694.69;;;19.23;51.57
62544;BME280;48597;49.030;1.822;2022-09-27T04:25:21;99698.19;;;19.24;51.57
62544;BME280;48597;49.030;1.822;2022-09-27T04:27:47;99700.03;;;19.23;51.53
62544;BME280;48597;49.030;1.822;2022-09-27T04:30:13;99700.19;;;19.22;51.51
62544;BME280;48597;49.030;1.822;2022-09-27T04:32:43;99702.88;;;19.22;51.52
62544;BME280;48597;49.030;1.822;2022-09-27T04:35:09;99692.22;;;19.22;51.74
62544;BME280;48597;49.030;1.822;2022-09-27T04:37:54;99696.69;;;19.21;51.63
62544;BME280;48597;49.030;1.822;2022-09-27T04:40:19;99698.38;;;19.22;51.58
62544;BME280;48597;49.030;1.822;2022-09-27T04:42:49;99689.53;;;19.22;51.60
62544;BME280;48597;49.030;1.822;2022-09-27T04:45:16;99700.03;;;19.23;51.57
62544;BME280;48597;49.030;1.822;2022-09-27T04:47:47;99697.53;;;19.22;51.44
62544;BME280;48597;49.030;1.822;2022-09-27T04:50:13;99705.53;;;19.22;51.61
62544;BME280;48597;49.030;1.822;2022-09-27T04:52:39;99707.34;;;19.21;51.62
62544;BME280;48597;49.030;1.822;2022-09-27T04:55:06;99701.19;;;19.21;51.61
62544;BME280;48597;49.030;1.822;2022-09-27T04:57:31;99707.34;;;19.21;51.71
62544;BME280;48597;49.030;1.822;2022-09-27T04:59:57;99694.88;;;19.22;51.60
62544;BME280;48597;49.030;1.822;2022-09-27T05:02:26;99686.00;;;19.21;51.62
62544;BME280;48597;49.030;1.822;2022-09-27T05:04:52;99683.34;;;19.21;51.57
62544;BME280;48597;49.030;1.822;2022-09-27T05:07:20;99676.34;;;19.20;51.53
62544;BME280;48597;49.030;1.822;2022-09-27T05:09:45;99675.34;;;19.21;51.59
62544;BME280;48597;49.030;1.822;2022-09-27T05:12:11;99683.53;;;19.20;51.52
62544;BME280;48597;49.030;1.822;2022-09-27T05:14:38;99689.69;;;19.20;51.54
62544;BME280;48597;49.030;1.822;2022-09-27T05:17:03;99687.03;;;19.20;51.53
62544;BME280;48597;49.030;1.822;2022-09-27T05:19:29;99686.19;;;19.20;51.47
62544;BME280;48597;49.030;1.822;2022-09-27T05:21:54;99690.72;;;19.19;51.49
62544;BME280;48597;49.030;1.822;2022-09-27T05:24:19;99692.34;;;19.20;51.67
62544;BME280;48597;49.030;1.822;2022-09-27T05:26:46;99687.22;;;19.19;51.47
62544;BME280;48597;49.030;1.822;2022-09-27T05:29:11;99696.03;;;19.19;51.49
62544;BME280;48597;49.030;1.822;2022-09-27T05:31:36;99684.34;;;19.20;51.33
62544;BME280;48597;49.030;1.822;2022-09-27T05:34:02;99697.69;;;19.20;51.41
62544;BME280;48597;49.030;1.822;2022-09-27T05:36:27;99684.34;;;19.20;51.45
62544;BME280;48597;49.030;1.822;2022-09-27T05:38:52;99687.03;;;19.20;51.49
62544;BME280;48597;49.030;1.822;2022-09-27T05:41:18;99700.34;;;19.20;51.37
62544;BME280;48597;49.030;1.822;2022-09-27T05:43:44;99696.03;;;19.19;51.45
62544;BME280;48597;49.030;1.822;2022-09-27T05:46:10;99692.53;;;19.19;51.46
62544;BME280;48597;49.030;1.822;2022-09-27T05:48:35;99687.22;;;19.19;51.38
62544;BME280;48597;49.030;1.822;2022-09-27T05:51:01;99696.03;;;19.19;51.42
62544;BME280;48597;49.030;1.822;2022-09-27T05:53:27;99694.38;;;19.18;51.38
62544;BME280;48597;49.030;1.822;2022-09-27T05:55:53;99693.38;;;19.19;51.55
62544;BME280;48597;49.030;1.822;2022-09-27T05:58:18;99691.72;;;19.18;51.44
62544;BME280;48597;49.030;1.822;2022-09-27T06:00:43;99700.53;;;19.19;51.47
62544;BME280;48597;49.030;1.822;2022-09-27T06:03:11;99694.38;;;19.18;51.43
62544;BME280;48597;49.030;1.822;2022-09-27T06:05:38;99702.38;;;19.18;51.42
62544;BME280;48597;49.030;1.822;2022-09-27T06:08:07;99720.03;;;19.19;51.43
62544;BME280;48597;49.030;1.822;2022-09-27T06:10:33;99713.06;;;19.18;51.40
62544;BME280;48597;49.030;1.822;2022-09-27T06:13:07;99710.38;;;19.18;51.32
62544;BME280;48597;49.030;1.822;2022-09-27T06:15:34;99707.72;;;19.18;51.32
62544;BME280;48597;49.030;1.822;2022-09-27T06:18:11;99716.69;;;19.17;51.26
62544;BME280;48597;49.030;1.822;2022-09-27T06:20:38;99709.72;;;19.16;51.24
62544;BME280;48597;49.030;1.822;2022-09-27T06:23:12;99707.03;;;19.16;51.30
62544;BME280;48597;49.030;1.822;2022-09-27T06:25:39;99707.03;;;19.16;51.36
62544;BME280;48597;49.030;1.822;2022-09-27T06:28:04;99715.88;;;19.17;51.34
62544;BME280;48597;49.030;1.822;2022-09-27T06:30:30;99704.38;;;19.16;51.24
62544;BME280;48597;49.030;1.822;2022-09-27T06:32:57;99701.06;;;19.14;51.36
62544;BME280;48597;49.030;1.822;2022-09-27T06:35:23;99709.72;;;19.16;51.41
62544;BME280;48597;49.030;1.822;2022-09-27T06:37:49;99712.19;;;19.18;51.19
62544;BME280;48597;49.030;1.822;2022-09-27T06:40:15;99706.84;;;19.18;51.35
62544;BME280;48597;49.030;1.822;2022-09-27T06:42:40;99704.38;;;19.16;51.40
62544;BME280;48597;49.030;1.822;2022-09-27T06:45:06;99698.84;;;19.18;51.26
62544;BME280;48597;49.030;1.822;2022-09-27T06:47:35;99698.03;;;19.17;51.46
62544;BME280;48597;49.030;1.822;2022-09-27T06:50:01;99696.38;;;19.16;51.36
62544;BME280;48597;49.030;1.822;2022-09-27T06:52:31;99707.88;;;19.17;51.41
62544;BME280;48597;49.030;1.822;2022-09-27T06:54:56;99714.84;;;19.18;51.36
62544;BME280;48597;49.030;1.822;2022-09-27T06:57:22;99712.19;;;19.18;51.28
62544;BME280;48597;49.030;1.822;2022-09-27T07:00:05;99712.19;;;19.18;51.36
62544;BME280;48597;49.030;1.822;2022-09-27T07:02:50;99723.72;;;19.18;51.51
62544;BME280;48597;49.030;1.822;2022-09-27T07:05:16;99721.06;;;19.18;51.61
62544;BME280;48597;49.030;1.822;2022-09-27T07:07:42;99713.06;;;19.18;51.55
62544;BME280;48597;49.030;1.822;2022-09-27T07:10:11;99715.72;;;19.18;51.74
62544;BME280;48597;49.030;1.822;2022-09-27T07:12:37;99722.03;;;19.17;51.39
62544;BME280;48597;49.030;1.822;2022-09-27T07:15:03;99725.72;;;19.16;51.38
62544;BME280;48597;49.030;1.822;2022-09-27T07:17:29;99729.06;;;19.18;51.47
62544;BME280;48597;49.030;1.822;2022-09-27T07:19:55;99724.69;;;19.17;51.40
62544;BME280;48597;49.030;1.822;2022-09-27T07:22:21;99729.06;;;19.18;51.42
62544;BME280;48597;49.030;1.822;2022-09-27T07:24:46;99734.53;;;19.17;51.44
62544;BME280;48597;49.030;1.822;2022-09-27T07:27:12;99741.53;;;19.18;51.43
62544;BME280;48597;49.030;1.822;2022-09-27T07:29:38;99741.53;;;19.18;51.41
62544;BME280;48597;49.030;1.822;2022-09-27T07:32:03;99739.03;;;19.16;51.48
62544;BME280;48597;49.030;1.822;2022-09-27T07:34:29;99748.56;;;19.19;51.43
62544;BME280;48597;49.030;1.822;2022-09-27T07:36:58;99740.69;;;19.17;51.36
62544;BME280;48597;49.030;1.822;2022-09-27T07:39:24;99757.53;;;19.18;51.31
62544;BME280;48597;49.030;1.822;2022-09-27T07:41:50;99749.53;;;19.18;51.23
62544;BME280;48597;49.030;1.822;2022-09-27T07:44:15;99755.88;;;19.17;51.22
62544;BME280;48597;49.030;1.822;2022-09-27T07:46:41;99754.88;;;19.18;51.38
62544;BME280;48597;49.030;1.822;2022-09-27T07:49:06;99760.19;;;19.18;51.31
62544;BME280;48597;49.030;1.822;2022-09-27T07:51:32;99755.72;;;19.18;51.42
62544;BME280;48597;49.030;1.822;2022-09-27T07:53:58;99776.03;;;19.19;51.38
62544;BME280;48597;49.030;1.822;2022-09-27T07:56:25;99763.72;;;19.18;51.21
62544;BME280;48597;49.030;1.822;2022-09-27T07:58:51;99775.03;;;19.20;51.22
62544;BME280;48597;49.030;1.822;2022-09-27T08:01:16;99778.53;;;19.21;51.33
62544;BME280;48597;49.030;1.822;2022-09-27T08:03:42;99758.88;;;19.22;51.36
62544;BME280;48597;49.030;1.822;2022-09-27T08:06:09;99754.69;;;19.27;51.11
62544;BME280;48597;49.030;1.822;2022-09-27T08:08:35;99766.00;;;19.29;50.98
62544;BME280;48597;49.030;1.822;2022-09-27T08:11:08;99772.53;;;19.74;49.96
62544;BME280;48597;49.030;1.822;2022-09-27T08:13:35;99779.06;;;19.55;50.31
62544;BME280;48597;49.030;1.822;2022-09-27T08:16:01;99786.63;;;19.44;50.66
62544;BME280;48597;49.030;1.822;2022-09-27T08:18:27;99780.97;;;19.38;50.78
62544;BME280;48597;49.030;1.822;2022-09-27T08:20:55;99780.50;;;19.35;50.91
62544;BME280;48597;49.030;1.822;2022-09-27T08:23:21;99774.66;;;19.31;50.69
62544;BME280;48597;49.030;1.822;2022-09-27T08:25:51;99776.50;;;19.31;50.97
62544;BME280;48597;49.030;1.822;2022-09-27T08:28:17;99779.00;;;19.32;50.80
62544;BME280;48597;49.030;1.822;2022-09-27T08:30:42;99773.31;;;19.35;50.91
62544;BME280;48597;49.030;1.822;2022-09-27T08:33:08;99783.66;;;19.38;50.73
62544;BME280;48597;49.030;1.822;2022-09-27T08:35:33;99785.84;;;19.35;50.88
62544;BME280;48597;49.030;1.822;2022-09-27T08:38:00;99797.66;;;19.32;50.94
62544;BME280;48597;49.030;1.822;2022-09-27T08:43:44;99782.69;;;19.31;50.94
62544;BME280;48597;49.030;1.822;2022-09-27T08:49:16;99806.69;;;19.31;51.10
62544;BME280;48597;49.030;1.822;2022-09-27T08:51:44;99806.50;;;19.33;51.06
62544;BME280;48597;49.030;1.822;2022-09-27T08:54:22;99806.34;;;19.34;51.16
62544;BME280;48597;49.030;1.822;2022-09-27T08:56:49;99811.69;;;19.34;51.43
62544;BME280;48597;49.030;1.822;2022-09-27T08:59:19;99803.50;;;19.36;50.98
62544;BME280;48597;49.030;1.822;2022-09-27T09:01:48;99798.00;;;19.37;51.02
62544;BME280;48597;49.030;1.822;2022-09-27T09:04:29;99792.50;;;19.39;50.98
62544;BME280;48597;49.030;1.822;2022-09-27T09:07:09;99788.66;;;19.42;51.23
62544;BME280;48597;49.030;1.822;2022-09-27T09:23:39;99782.41;;;19.57;51.05
62544;BME280;48597;49.030;1.822;2022-09-27T09:26:32;99779.75;;;19.57;51.09
62544;BME280;48597;49.030;1.822;2022-09-27T09:34:29;99762.53;;;19.60;50.97
62544;BME280;48597;49.030;1.822;2022-09-27T09:37:03;99757.19;;;19.60;50.88
62544;BME280;48597;49.030;1.822;2022-09-27T09:39:37;99755.34;;;19.60;51.05
62544;BME280;48597;49.030;1.822;2022-09-27T09:42:05;99752.56;;;19.62;51.02
62544;BME280;48597;49.030;1.822;2022-09-27T09:44:47;99760.38;;;19.64;50.87
62544;BME280;48597;49.030;1.822;2022-09-27T09:47:31;99757.56;;;19.65;50.86
62544;BME280;48597;49.030;1.822;2022-09-27T09:50:04;99754.72;;;19.67;50.93
62544;BME280;48597;49.030;1.822;2022-09-27T09:52:48;99761.88;;;19.66;50.89
62544;BME280;48597;49.030;1.822;2022-09-27T09:55:20;99740.53;;;19.66;50.92
62544;BME280;48597;49.030;1.822;2022-09-27T09:57:58;99740.34;;;19.68;50.92
62544;BME280;48597;49.030;1.822;2022-09-27T10:00:26;99742.88;;;19.69;50.81
62544;BME280;48597;49.030;1.822;2022-09-27T10:02:54;99749.03;;;19.70;50.78
62544;BME280;48597;49.030;1.822;2022-09-27T10:05:24;99750.69;;;19.71;50.68
62544;BME280;48597;49.030;1.822;2022-09-27T10:07:51;99745.34;;;19.71;50.89
62544;BME280;48597;49.030;1.822;2022-09-27T10:10:19;99746.34;;;19.70;51.00
62544;BME280;48597;49.030;1.822;2022-09-27T10:12:45;99749.84;;;19.70;50.80
62544;BME280;48597;49.030;1.822;2022-09-27T10:15:17;99742.88;;;19.69;50.86
62544;BME280;48597;49.030;1.822;2022-09-27T10:17:45;99744.50;;;19.70;50.85
62544;BME280;48597;49.030;1.822;2022-09-27T10:20:41;99743.50;;;19.71;50.87
62544;BME280;48597;49.030;1.822;2022-09-27T10:23:16;99751.50;;;19.71;50.87
62544;BME280;48597;49.030;1.822;2022-09-27T10:25:46;99756.84;;;19.71;50.87
62544;BME280;48597;49.030;1.822;2022-09-27T10:28:48;99741.66;;;19.72;50.83
62544;BME280;48597;49.030;1.822;2022-09-27T10:31:18;99733.66;;;19.72;50.87
62544;BME280;48597;49.030;1.822;2022-09-27T10:33:56;99735.50;;;19.71;50.78
62544;BME280;48597;49.030;1.822;2022-09-27T10:36:29;99731.81;;;19.72;50.71
62544;BME280;48597;49.030;1.822;2022-09-27T10:38:57;99734.47;;;19.72;50.81
62544;BME280;48597;49.030;1.822;2022-09-27T10:41:25;99735.31;;;19.73;50.87
62544;BME280;48597;49.030;1.822;2022-09-27T10:43:56;99729.81;;;19.74;50.77
62544;BME280;48597;49.030;1.822;2022-09-27T10:46:30;99736.16;;;19.73;50.75
62544;BME280;48597;49.030;1.822;2022-09-27T10:51:41;99729.81;;;19.74;50.78
62544;BME280;48597;49.030;1.822;2022-09-27T10:54:21;99729.81;;;19.74;50.64
62544;BME280;48597;49.030;1.822;2022-09-27T10:57:19;99725.31;;;19.75;50.57
62544;BME280;48597;49.030;1.822;2022-09-27T10:59:50;99731.47;;;19.75;50.76
62544;BME280;48597;49.030;1.822;2022-09-27T11:05:11;99731.31;;;19.77;50.74
62544;BME280;48597;49.030;1.822;2022-09-27T11:07:48;99728.63;;;19.77;50.76
62544;BME280;48597;49.030;1.822;2022-09-27T11:10:27;99725.78;;;19.78;50.56
62544;BME280;48597;49.030;1.822;2022-09-27T11:13:17;99723.13;;;19.78;50.61
62544;BME280;48597;49.030;1.822;2022-09-27T11:24:29;99709.41;;;19.81;50.44
62544;BME280;48597;49.030;1.822;2022-09-27T11:32:14;99700.41;;;19.82;50.40
62544;BME280;48597;49.030;1.822;2022-09-27T11:53:52;99707.38;;;19.83;50.57
62544;BME280;48597;49.030;1.822;2022-09-27T11:56:29;99688.06;;;19.81;50.49
62544;BME280;48597;49.030;1.822;2022-09-27T12:02:04;99695.88;;;19.83;50.64
62544;BME280;48597;49.030;1.822;2022-09-27T12:04:59;99691.38;;;19.83;50.62
62544;BME280;48597;49.030;1.822;2022-09-27T12:07:49;99685.19;;;19.83;50.49
62544;BME280;48597;49.030;1.822;2022-09-27T12:10:17;99681.72;;;19.82;50.55
62544;BME280;48597;49.030;1.822;2022-09-27T12:12:48;99689.72;;;19.82;50.51
62544;BME280;48597;49.030;1.822;2022-09-27T12:15:20;99672.88;;;19.82;50.62
62544;BME280;48597;49.030;1.822;2022-09-27T12:17:53;99671.03;;;19.82;50.64
62544;BME280;48597;49.030;1.822;2022-09-27T12:20:27;99680.69;;;19.83;50.69
62544;BME280;48597;49.030;1.822;2022-09-27T12:25:34;99671.84;;;19.83;50.53
62544;BME280;48597;49.030;1.822;2022-09-27T12:28:05;99674.53;;;19.83;50.61
62544;BME280;48597;49.030;1.822;2022-09-27T12:30:34;99670.84;;;19.84;50.69
62544;BME280;48597;49.030;1.822;2022-09-27T12:33:33;99665.50;;;19.84;50.64
62544;BME280;48597;49.030;1.822;2022-09-27T12:36:06;99672.53;;;19.85;50.60
62544;BME280;48597;49.030;1.822;2022-09-27T12:38:56;99673.34;;;19.85;50.67
62544;BME280;48597;49.030;1.822;2022-09-27T12:41:29;99669.00;;;19.84;50.74
62544;BME280;48597;49.030;1.822;2022-09-27T12:43:58;99664.31;;;19.86;50.61
62544;BME280;48597;49.030;1.822;2022-09-27T12:51:50;99661.66;;;19.86;50.58
62544;BME280;48597;49.030;1.822;2022-09-27T13:00:18;99652.81;;;19.86;50.73
62544;BME280;48597;49.030;1.822;2022-09-27T13:03:41;99660.81;;;19.86;50.61
62544;BME280;48597;49.030;1.822;2022-09-27T13:09:01;99673.34;;;19.85;50.81
62544;BME280;48597;49.030;1.822;2022-09-27T13:14:02;99644.97;;;19.84;50.78
62544;BME280;48597;49.030;1.822;2022-09-27T13:16:28;99647.47;;;19.86;50.85
62544;BME280;48597;49.030;1.822;2022-09-27T13:18:58;99644.13;;;19.84;50.77
62544;BME280;48597;49.030;1.822;2022-09-27T13:35:34;99629.81;;;19.85;50.66
62544;BME280;48597;49.030;1.822;2022-09-27T13:38:01;99610.25;;;19.84;50.60
62544;BME280;48597;49.030;1.822;2022-09-27T13:40:27;99615.59;;;19.84;50.67
62544;BME280;48597;49.030;1.822;2022-09-27T13:43:15;99609.28;;;19.85;50.77
62544;BME280;48597;49.030;1.822;2022-09-27T13:46:01;99604.91;;;19.84;50.74
62544;BME280;48597;49.030;1.822;2022-09-27T13:59:18;99589.94;;;19.83;50.77
62544;BME280;48597;49.030;1.822;2022-09-27T14:01:58;99596.91;;;19.84;50.84
62544;BME280;48597;49.030;1.822;2022-09-27T14:04:33;99585.41;;;19.84;50.88
62544;BME280;48597;49.030;1.822;2022-09-27T14:07:02;99597.94;;;19.83;50.86
62544;BME280;48597;49.030;1.822;2022-09-27T14:09:34;99596.09;;;19.84;50.93
62544;BME280;48597;49.030;1.822;2022-09-27T14:12:09;99598.94;;;19.82;50.76
62544;BME280;48597;49.030;1.822;2022-09-27T14:14:35;99587.25;;;19.83;50.86
62544;BME280;48597;49.030;1.822;2022-09-27T14:17:07;99587.25;;;19.83;50.91
62544;BME280;48597;49.030;1.822;2022-09-27T14:19:38;99585.41;;;19.84;50.82
62544;BME280;48597;49.030;1.822;2022-09-27T14:22:11;99576.41;;;19.85;50.82
62544;BME280;48597;49.030;1.822;2022-09-27T14:27:12;99567.38;;;19.86;50.88
62544;BME280;48597;49.030;1.822;2022-09-27T14:29:50;99561.22;;;19.85;50.86
62544;BME280;48597;49.030;1.822;2022-09-27T14:32:22;99559.19;;;19.88;50.96
62544;BME280;48597;49.030;1.822;2022-09-27T14:37:52;99555.69;;;19.87;50.68
62544;BME280;48597;49.030;1.822;2022-09-27T14:40:20;99549.53;;;19.86;50.73
62544;BME280;48597;49.030;1.822;2022-09-27T14:42:52;99558.38;;;19.87;50.77
62544;BME280;48597;49.030;1.822;2022-09-27T14:45:21;99558.38;;;19.87;50.82
62544;BME280;48597;49.030;1.822;2022-09-27T14:47:50;99557.53;;;19.86;50.67
62544;BME280;48597;49.030;1.822;2022-09-27T14:50:28;99547.88;;;19.85;50.76
62544;BME280;48597;49.030;1.822;2022-09-27T14:52:54;99545.22;;;19.85;50.71
62544;BME280;48597;49.030;1.822;2022-09-27T14:55:23;99533.50;;;19.86;50.73
62544;BME280;48597;49.030;1.822;2022-09-27T14:58:10;99529.00;;;19.87;50.66
62544;BME280;48597;49.030;1.822;2022-09-27T15:00:38;99527.16;;;19.88;50.72
62544;BME280;48597;49.030;1.822;2022-09-27T15:03:18;99521.81;;;19.88;50.75
62544;BME280;48597;49.030;1.822;2022-09-27T15:05:45;99518.31;;;19.87;50.61
62544;BME280;48597;49.030;1.822;2022-09-27T15:08:11;99510.16;;;19.89;50.76
62544;BME280;48597;49.030;1.822;2022-09-27T15:10:39;99506.47;;;19.90;50.75
62544;BME280;48597;49.030;1.822;2022-09-27T15:13:05;99498.44;;;19.90;50.88
62544;BME280;48597;49.030;1.822;2022-09-27T15:15:33;99499.28;;;19.90;50.65
62544;BME280;48597;49.030;1.822;2022-09-27T15:18:00;99502.13;;;19.89;50.71
62544;BME280;48597;49.030;1.822;2022-09-27T15:20:33;99492.28;;;19.89;50.74
62544;BME280;48597;49.030;1.822;2022-09-27T15:23:03;99492.09;;;19.91;50.78
62544;BME280;48597;49.030;1.822;2022-09-27T15:28:01;99488.59;;;19.90;50.78
62544;BME280;48597;49.030;1.822;2022-09-27T15:32:58;99481.59;;;19.89;50.67
62544;BME280;48597;49.030;1.822;2022-09-27T15:35:29;99469.06;;;19.90;50.75
62544;BME280;48597;49.030;1.822;2022-09-27T15:43:33;99470.72;;;19.91;50.77
62544;BME280;48597;49.030;1.822;2022-09-27T15:46:01;99468.88;;;19.91;50.78
62544;BME280;48597;49.030;1.822;2022-09-27T15:48:30;99468.06;;;19.91;50.84
62544;BME280;48597;49.030;1.822;2022-09-27T15:50:56;99459.84;;;19.92;50.90
62544;BME280;48597;49.030;1.822;2022-09-27T15:56:03;99453.69;;;19.92;50.67
62544;BME280;48597;49.030;1.822;2022-09-27T15:58:31;99458.03;;;19.93;50.80
62544;BME280;48597;49.030;1.822;2022-09-27T16:00:59;99461.69;;;19.92;50.70